createdAt,value
2022-08-30T00:01:06.545Z,2.60
2022-08-30T00:03:37.554Z,2.90
2022-08-30T00:06:06.855Z,2.60
2022-08-30T00:08:34.869Z,3.23
2022-08-30T00:11:02.459Z,2.63
2022-08-30T00:13:29.613Z,2.73
2022-08-30T00:15:56.131Z,3.50
2022-08-30T00:18:24.548Z,2.93
2022-08-30T00:20:52.267Z,2.90
2022-08-30T00:23:19.543Z,2.90
2022-08-30T00:25:46.187Z,3.23
2022-08-30T00:28:14.400Z,3.17
2022-08-30T00:30:41.724Z,3.27
2022-08-30T00:33:08.356Z,3.00
2022-08-30T00:35:35.897Z,3.10
2022-08-30T00:38:02.551Z,2.47
2022-08-30T00:40:30.522Z,3.70
2022-08-30T00:43:02.182Z,3.23
2022-08-30T00:45:35.375Z,3.10
2022-08-30T00:48:02.264Z,3.10
2022-08-30T00:50:33.473Z,2.87
2022-08-30T00:53:04.044Z,2.53
2022-08-30T00:55:30.880Z,2.60
2022-08-30T00:58:02.381Z,2.77
2022-08-30T01:00:31.697Z,3.20
2022-08-30T01:02:58.409Z,3.13
2022-08-30T01:05:25.277Z,2.83
2022-08-30T01:07:51.800Z,3.30
2022-08-30T01:10:18.836Z,2.90
2022-08-30T01:12:45.647Z,3.17
2022-08-30T01:15:14.839Z,3.10
2022-08-30T01:17:44.117Z,2.90
2022-08-30T01:20:20.642Z,3.23
2022-08-30T01:22:49.814Z,2.67
2022-08-30T01:25:22.130Z,2.80
2022-08-30T01:27:59.075Z,2.97
2022-08-30T01:30:25.521Z,3.23
2022-08-30T01:32:59.195Z,3.07
2022-08-30T01:35:27.085Z,3.37
2022-08-30T01:37:54.002Z,3.00
2022-08-30T01:40:21.122Z,2.73
2022-08-30T01:42:48.573Z,2.73
2022-08-30T01:45:15.076Z,3.20
2022-08-30T01:47:42.387Z,2.40
2022-08-30T01:50:10.824Z,3.10
2022-08-30T01:52:37.525Z,3.77
2022-08-30T01:55:05.420Z,3.03
2022-08-30T01:57:32.208Z,2.57
2022-08-30T01:59:58.656Z,2.87
2022-08-30T02:02:29.170Z,3.50
2022-08-30T02:04:57.246Z,3.33
2022-08-30T02:07:25.243Z,3.70
2022-08-30T02:09:53.381Z,2.80
2022-08-30T02:12:21.185Z,2.80
2022-08-30T02:14:47.974Z,2.87
2022-08-30T02:17:15.721Z,3.30
2022-08-30T02:19:42.768Z,2.50
2022-08-30T02:22:09.585Z,3.27
2022-08-30T02:24:36.110Z,3.20
2022-08-30T02:27:02.583Z,3.00
2022-08-30T02:29:29.625Z,2.80
2022-08-30T02:31:56.060Z,2.97
2022-08-30T02:34:22.785Z,2.70
2022-08-30T02:36:49.268Z,3.17
2022-08-30T02:39:16.116Z,2.70
2022-08-30T02:41:43.106Z,3.20
2022-08-30T02:44:10.712Z,2.70
2022-08-30T02:46:37.868Z,3.07
2022-08-30T02:49:23.714Z,3.00
2022-08-30T02:51:51.422Z,3.23
2022-08-30T02:54:20.049Z,3.10
2022-08-30T02:56:47.977Z,3.00
2022-08-30T02:59:16.115Z,2.80
2022-08-30T03:01:43.378Z,2.80
2022-08-30T03:04:10.340Z,3.33
2022-08-30T03:06:36.793Z,2.90
2022-08-30T03:09:03.860Z,2.90
2022-08-30T03:11:30.380Z,2.80
2022-08-30T03:13:56.829Z,3.07
2022-08-30T03:16:23.339Z,3.43
2022-08-30T03:18:49.881Z,3.10
2022-08-30T03:21:16.742Z,3.10
2022-08-30T03:23:43.237Z,3.07
2022-08-30T03:26:12.563Z,2.90
2022-08-30T03:28:39.072Z,2.90
2022-08-30T03:31:05.711Z,2.60
2022-08-30T03:33:32.145Z,2.90
2022-08-30T03:35:58.876Z,2.70
2022-08-30T03:38:26.113Z,3.27
2022-08-30T03:40:52.677Z,3.30
2022-08-30T03:43:19.336Z,3.10
2022-08-30T03:45:46.231Z,3.40
2022-08-30T03:48:12.998Z,3.37
2022-08-30T03:50:40.589Z,3.40
2022-08-30T03:53:07.558Z,3.00
2022-08-30T03:55:34.288Z,3.13
2022-08-30T03:58:00.748Z,2.90
2022-08-30T04:00:27.309Z,3.40
2022-08-30T04:02:53.762Z,2.87
2022-08-30T04:05:20.381Z,3.50
2022-08-30T04:07:46.857Z,2.87
2022-08-30T04:10:13.370Z,3.00
2022-08-30T04:12:39.801Z,3.50
2022-08-30T04:15:07.665Z,3.60
2022-08-30T04:17:34.106Z,2.80
2022-08-30T04:20:00.530Z,3.23
2022-08-30T04:22:26.996Z,3.47
2022-08-30T04:24:53.632Z,4.03
2022-08-30T04:27:20.450Z,3.60
2022-08-30T04:29:47.663Z,3.40
2022-08-30T04:32:14.657Z,3.80
2022-08-30T04:34:41.121Z,3.40
2022-08-30T04:37:10.001Z,2.80
2022-08-30T04:39:37.202Z,3.47
2022-08-30T04:42:04.182Z,2.97
2022-08-30T04:44:32.046Z,3.60
2022-08-30T04:46:59.063Z,4.23
2022-08-30T04:49:25.515Z,3.10
2022-08-30T04:51:51.973Z,3.10
2022-08-30T04:54:18.505Z,3.07
2022-08-30T04:56:44.922Z,3.10
2022-08-30T04:59:11.385Z,3.20
2022-08-30T05:01:45.686Z,3.10
2022-08-30T05:04:12.971Z,3.00
2022-08-30T05:06:39.409Z,3.77
2022-08-30T05:09:05.917Z,3.30
2022-08-30T05:11:32.724Z,3.30
2022-08-30T05:13:59.223Z,3.70
2022-08-30T05:16:26.158Z,3.73
2022-08-30T05:18:53.771Z,3.80
2022-08-30T05:21:22.961Z,3.50
2022-08-30T05:23:50.224Z,3.67
2022-08-30T05:26:20.954Z,3.50
2022-08-30T05:28:49.608Z,4.37
2022-08-30T05:31:23.169Z,3.57
2022-08-30T05:33:50.875Z,3.67
2022-08-30T05:36:18.948Z,3.40
2022-08-30T05:38:46.253Z,3.90
2022-08-30T05:41:13.330Z,3.27
2022-08-30T05:43:41.005Z,3.47
2022-08-30T05:46:10.642Z,3.67
2022-08-30T05:48:37.835Z,3.50
2022-08-30T05:51:17.584Z,3.60
2022-08-30T05:53:45.666Z,3.90
2022-08-30T05:56:14.576Z,3.43
2022-08-30T05:58:41.199Z,3.87
2022-08-30T06:01:07.981Z,3.17
2022-08-30T06:03:35.319Z,3.37
2022-08-30T06:06:02.421Z,3.40
2022-08-30T06:08:29.293Z,3.53
2022-08-30T06:10:55.733Z,3.53
2022-08-30T06:13:22.386Z,2.97
2022-08-30T06:15:49.565Z,3.43
2022-08-30T06:18:16.221Z,3.63
2022-08-30T06:20:43.998Z,3.57
2022-08-30T06:23:11.153Z,4.20
2022-08-30T06:25:42.127Z,3.80
2022-08-30T06:28:09.593Z,3.60
2022-08-30T06:30:36.986Z,4.33
2022-08-30T06:33:03.479Z,4.30
2022-08-30T06:35:32.719Z,4.00
2022-08-30T06:38:02.069Z,3.80
2022-08-30T06:40:28.858Z,4.53
2022-08-30T06:42:55.860Z,5.30
2022-08-30T06:45:22.397Z,4.37
2022-08-30T06:47:48.872Z,3.73
2022-08-30T06:50:17.636Z,3.67
2022-08-30T06:52:45.258Z,4.20
2022-08-30T06:55:16.520Z,4.43
2022-08-30T06:57:43.022Z,4.37
2022-08-30T07:00:12.252Z,4.53
2022-08-30T07:02:39.082Z,4.60
2022-08-30T07:05:07.812Z,4.70
2022-08-30T07:07:35.350Z,4.47
2022-08-30T07:10:04.364Z,4.57
2022-08-30T07:12:30.811Z,4.70
2022-08-30T07:14:57.293Z,4.60
2022-08-30T07:17:42.263Z,5.17
2022-08-30T07:20:10.341Z,5.23
2022-08-30T07:22:36.896Z,4.30
2022-08-30T07:25:03.569Z,5.13
2022-08-30T07:27:31.180Z,5.17
2022-08-30T07:29:58.805Z,4.80
2022-08-30T07:32:25.611Z,5.10
2022-08-30T07:34:52.017Z,4.73
2022-08-30T07:37:18.773Z,5.10
2022-08-30T07:39:47.952Z,4.30
2022-08-30T07:42:14.709Z,5.67
2022-08-30T07:44:41.162Z,5.63
2022-08-30T07:47:07.602Z,4.50
2022-08-30T07:49:34.023Z,4.57
2022-08-30T07:52:00.681Z,3.97
2022-08-30T07:54:27.106Z,3.43
2022-08-30T07:56:55.779Z,3.00
2022-08-30T07:59:23.435Z,3.33
2022-08-30T08:01:50.080Z,3.73
2022-08-30T08:04:21.434Z,3.60
2022-08-30T08:06:48.088Z,3.30
2022-08-30T08:09:14.512Z,3.53
2022-08-30T08:11:41.721Z,3.50
2022-08-30T08:14:08.430Z,3.17
2022-08-30T08:16:36.261Z,3.80
2022-08-30T08:19:08.647Z,3.90
2022-08-30T08:21:35.472Z,3.30
2022-08-30T08:24:02.505Z,5.13
2022-08-30T08:26:29.692Z,4.33
2022-08-30T08:28:56.217Z,4.70
2022-08-30T08:31:27.353Z,3.70
2022-08-30T08:34:05.330Z,3.80
2022-08-30T08:36:33.183Z,3.97
2022-08-30T08:39:00.932Z,3.10
2022-08-30T08:41:46.200Z,3.47
2022-08-30T08:44:39.334Z,2.37
2022-08-30T08:47:11.517Z,3.00
2022-08-30T08:49:42.801Z,3.20
2022-08-30T08:52:42.874Z,2.80
2022-08-30T08:55:14.650Z,3.13
2022-08-30T08:57:41.713Z,3.53
2022-08-30T09:00:10.551Z,2.87
2022-08-30T09:02:55.820Z,3.37
2022-08-30T09:05:26.005Z,3.30
2022-08-30T09:07:59.383Z,4.07
2022-08-30T09:10:47.131Z,3.00
2022-08-30T09:13:14.379Z,3.30
2022-08-30T09:15:41.055Z,3.73
2022-08-30T09:18:19.422Z,3.40
2022-08-30T09:20:51.427Z,3.70
2022-08-30T09:23:30.635Z,3.47
2022-08-30T09:25:59.220Z,3.57
2022-08-30T09:28:29.977Z,3.60
2022-08-30T09:31:26.947Z,2.97
2022-08-30T09:34:17.815Z,3.67
2022-08-30T09:36:51.999Z,3.33
2022-08-30T09:39:41.297Z,4.77
2022-08-30T09:42:20.175Z,3.33
2022-08-30T09:44:46.885Z,3.70
2022-08-30T09:47:28.762Z,3.77
2022-08-30T09:50:10.875Z,3.83
2022-08-30T09:52:55.430Z,3.30
2022-08-30T09:55:41.081Z,2.80
2022-08-30T09:58:17.620Z,3.80
2022-08-30T10:01:22.107Z,2.70
2022-08-30T10:04:05.493Z,3.27
2022-08-30T10:06:45.995Z,4.00
2022-08-30T10:09:29.421Z,4.53
2022-08-30T10:12:39.647Z,3.50
2022-08-30T10:15:09.217Z,3.37
2022-08-30T10:17:41.765Z,3.03
2022-08-30T10:20:19.800Z,3.17
2022-08-30T10:23:07.725Z,3.67
2022-08-30T10:25:40.008Z,3.33
2022-08-30T10:28:30.788Z,4.13
2022-08-30T10:31:03.606Z,3.63
2022-08-30T10:33:39.129Z,2.93
2022-08-30T10:36:10.706Z,3.37
2022-08-30T10:38:40.152Z,3.03
2022-08-30T10:41:20.599Z,3.27
2022-08-30T10:43:56.103Z,3.57
2022-08-30T10:47:02.654Z,3.43
2022-08-30T10:49:34.848Z,3.40
2022-08-30T10:52:31.139Z,3.00
2022-08-30T10:55:18.818Z,2.83
2022-08-30T10:57:45.781Z,2.83
2022-08-30T11:00:35.391Z,3.60
2022-08-30T11:03:31.168Z,3.80
2022-08-30T11:06:11.781Z,3.30
2022-08-30T11:08:44.895Z,3.30
2022-08-30T11:11:33.113Z,3.20
2022-08-30T11:14:05.636Z,3.40
2022-08-30T11:16:41.963Z,3.00
2022-08-30T11:19:34.670Z,3.23
2022-08-30T11:22:21.281Z,3.13
2022-08-30T11:25:10.141Z,3.27
2022-08-30T11:27:48.148Z,3.63
2022-08-30T11:30:23.999Z,3.20
2022-08-30T11:33:22.496Z,2.93
2022-08-30T11:35:52.420Z,3.23
2022-08-30T11:38:25.433Z,3.03
2022-08-30T11:40:54.560Z,2.90
2022-08-30T11:43:40.193Z,3.53
2022-08-30T11:46:28.658Z,3.30
2022-08-30T11:49:13.876Z,3.87
2022-08-30T11:52:27.165Z,3.03
2022-08-30T11:55:18.147Z,2.77
2022-08-30T11:58:14.412Z,4.13
2022-08-30T12:00:47.808Z,3.97
2022-08-30T12:03:33.585Z,3.33
2022-08-30T12:06:05.201Z,3.60
2022-08-30T12:08:33.445Z,3.50
2022-08-30T12:11:04.386Z,3.20
2022-08-30T12:13:37.143Z,3.33
2022-08-30T12:16:20.377Z,3.67
2022-08-30T12:18:57.234Z,2.87
2022-08-30T12:21:31.337Z,3.40
2022-08-30T12:24:24.863Z,3.00
2022-08-30T12:26:52.580Z,3.50
2022-08-30T12:29:27.123Z,3.17
2022-08-30T12:32:14.337Z,2.83
2022-08-30T12:34:40.770Z,3.00
2022-08-30T12:37:27.378Z,3.13
2022-08-30T12:40:16.706Z,3.20
2022-08-30T12:43:05.293Z,3.70
2022-08-30T12:45:45.308Z,3.43
2022-08-30T12:48:19.826Z,3.30
2022-08-30T12:50:51.904Z,2.93
2022-08-30T12:53:42.074Z,3.83
2022-08-30T12:56:14.747Z,4.10
2022-08-30T12:58:47.611Z,3.90
2022-08-30T13:01:35.822Z,4.30
2022-08-30T13:04:27.401Z,4.17
2022-08-30T13:07:02.010Z,4.83
2022-08-30T13:09:42.820Z,4.30
2022-08-30T13:12:30.301Z,4.50
2022-08-30T13:15:33.819Z,4.47
2022-08-30T13:18:30.062Z,3.60
2022-08-30T13:21:21.153Z,4.30
2022-08-30T13:23:49.436Z,4.90
2022-08-30T13:26:20.483Z,4.73
2022-08-30T13:28:53.777Z,5.30
2022-08-30T13:31:20.722Z,4.60
2022-08-30T13:33:52.925Z,4.60
2022-08-30T13:36:32.849Z,5.10
2022-08-30T13:39:00.743Z,4.80
2022-08-30T13:41:30.239Z,4.07
2022-08-30T13:44:16.892Z,4.37
2022-08-30T13:46:53.970Z,4.70
2022-08-30T13:52:21.437Z,5.13
2022-08-30T13:54:57.686Z,4.77
2022-08-30T14:00:19.102Z,4.23
2022-08-30T14:02:54.145Z,4.43
2022-08-30T14:05:47.609Z,3.97
2022-08-30T14:11:02.016Z,4.00
2022-08-30T14:13:29.471Z,3.83
2022-08-30T14:18:46.055Z,4.37
2022-08-30T14:21:12.498Z,4.27
2022-08-30T14:23:38.963Z,3.80
2022-08-30T14:26:11.958Z,4.03
2022-08-30T14:28:38.459Z,4.17
2022-08-30T14:31:05.343Z,3.57
2022-08-30T14:33:33.261Z,4.10
2022-08-30T14:35:59.848Z,4.00
2022-08-30T14:38:26.360Z,4.77
2022-08-30T14:40:52.777Z,4.20
2022-08-30T14:43:19.205Z,4.20
2022-08-30T14:45:46.096Z,3.80
2022-08-30T14:48:12.854Z,4.17
2022-08-30T14:50:41.492Z,3.73
2022-08-30T14:53:08.120Z,4.30
2022-08-30T14:55:35.405Z,4.00
2022-08-30T14:58:02.025Z,3.83
2022-08-30T15:00:30.970Z,3.57
2022-08-30T15:02:57.443Z,3.77
2022-08-30T15:05:23.905Z,3.70
2022-08-30T15:07:51.432Z,3.30
2022-08-30T15:10:20.073Z,3.20
2022-08-30T15:12:50.755Z,3.03
2022-08-30T15:15:21.111Z,3.70
2022-08-30T15:17:48.799Z,3.40
2022-08-30T15:20:18.815Z,3.30
2022-08-30T15:22:46.087Z,3.50
2022-08-30T15:25:13.512Z,2.90
2022-08-30T15:27:39.923Z,4.00
2022-08-30T15:30:07.003Z,3.10
2022-08-30T15:32:33.503Z,3.23
2022-08-30T15:35:00.298Z,3.40
2022-08-30T15:37:27.205Z,3.10
2022-08-30T15:39:53.832Z,3.40
2022-08-30T15:42:20.322Z,3.40
2022-08-30T15:44:53.761Z,3.37
2022-08-30T15:47:22.268Z,3.13
2022-08-30T15:50:58.305Z,3.47
2022-08-30T15:53:24.770Z,2.73
2022-08-30T15:55:51.596Z,4.20
2022-08-30T15:58:18.783Z,3.70
2022-08-30T16:00:45.605Z,3.03
2022-08-30T16:03:12.334Z,3.73
2022-08-30T16:05:38.862Z,3.47
2022-08-30T16:08:05.308Z,3.43
2022-08-30T16:10:32.157Z,3.93
2022-08-30T16:13:00.111Z,3.40
2022-08-30T16:15:27.701Z,3.73
2022-08-30T16:17:54.116Z,3.40
2022-08-30T16:20:20.550Z,3.90
2022-08-30T16:22:47.288Z,3.33
2022-08-30T16:25:13.749Z,3.50
2022-08-30T16:27:42.949Z,3.30
2022-08-30T16:30:11.532Z,3.80
2022-08-30T16:32:38.212Z,3.00
2022-08-30T16:35:06.727Z,3.40
2022-08-30T16:37:33.393Z,3.17
2022-08-30T16:39:59.839Z,3.37
2022-08-30T16:42:27.696Z,3.33
2022-08-30T16:44:54.621Z,3.83
2022-08-30T16:47:22.082Z,3.57
2022-08-30T16:49:49.483Z,3.60
2022-08-30T16:52:17.078Z,3.80
2022-08-30T16:54:44.946Z,3.30
2022-08-30T16:57:12.237Z,3.50
2022-08-30T16:59:38.767Z,3.20
2022-08-30T17:02:05.224Z,3.00
2022-08-30T17:04:32.593Z,2.80
2022-08-30T17:06:58.987Z,2.80
2022-08-30T17:09:25.421Z,3.33
2022-08-30T17:11:52.817Z,3.13
2022-08-30T17:14:28.057Z,2.60
2022-08-30T17:16:57.893Z,3.07
2022-08-30T17:19:27.021Z,3.50
2022-08-30T17:21:55.190Z,3.60
2022-08-30T17:24:21.657Z,2.73
2022-08-30T17:26:48.353Z,3.73
2022-08-30T17:29:15.894Z,3.13
2022-08-30T17:31:42.918Z,2.80
2022-08-30T17:34:09.539Z,3.10
2022-08-30T17:36:38.145Z,3.30
2022-08-30T17:39:11.317Z,3.20
2022-08-30T17:41:45.406Z,3.97
2022-08-30T17:44:28.921Z,4.13
2022-08-30T17:46:57.468Z,4.30
2022-08-30T17:49:25.001Z,4.43
2022-08-30T17:51:56.290Z,4.00
2022-08-30T17:54:24.556Z,3.50
2022-08-30T17:56:52.681Z,3.27
2022-08-30T17:59:19.441Z,3.60
2022-08-30T18:01:51.840Z,3.40
2022-08-30T18:04:19.744Z,3.30
2022-08-30T18:06:47.978Z,3.57
2022-08-30T18:09:14.599Z,3.17
2022-08-30T18:11:41.339Z,3.50
2022-08-30T18:14:10.821Z,3.03
2022-08-30T18:16:38.895Z,3.30
2022-08-30T18:19:16.579Z,3.07
2022-08-30T18:21:43.162Z,3.50
2022-08-30T18:24:09.684Z,3.23
2022-08-30T18:26:43.060Z,3.10
2022-08-30T18:29:10.614Z,3.43
2022-08-30T18:31:37.100Z,3.50
2022-08-30T18:34:03.804Z,3.50
2022-08-30T18:36:30.589Z,3.03
2022-08-30T18:38:58.075Z,3.10
2022-08-30T18:41:25.231Z,3.47
2022-08-30T18:44:05.721Z,3.63
2022-08-30T18:46:45.225Z,3.00
2022-08-30T18:49:22.461Z,3.70
2022-08-30T18:51:50.066Z,3.30
2022-08-30T18:54:16.585Z,3.47
2022-08-30T18:56:45.128Z,3.30
2022-08-30T18:59:11.908Z,3.37
2022-08-30T19:01:39.392Z,3.33
2022-08-30T19:04:07.715Z,3.93
2022-08-30T19:06:34.591Z,3.30
2022-08-30T19:09:01.009Z,3.70
2022-08-30T19:11:28.025Z,3.73
2022-08-30T19:13:54.930Z,3.50
2022-08-30T19:16:21.924Z,3.60
2022-08-30T19:18:48.792Z,3.50
2022-08-30T19:21:15.262Z,3.20
2022-08-30T19:23:44.329Z,2.83
2022-08-30T19:26:10.982Z,3.00
2022-08-30T19:28:37.840Z,3.63
2022-08-30T19:31:04.615Z,3.40
2022-08-30T19:33:33.370Z,3.10
2022-08-30T19:36:00.521Z,3.70
2022-08-30T19:38:27.087Z,3.63
2022-08-30T19:41:00.222Z,4.50
2022-08-30T19:43:28.052Z,3.80
2022-08-30T19:45:59.203Z,3.63
2022-08-30T19:48:32.125Z,3.90
2022-08-30T19:51:06.502Z,4.40
2022-08-30T19:53:33.725Z,3.37
2022-08-30T19:56:00.561Z,4.13
2022-08-30T19:58:27.104Z,4.23
2022-08-30T20:01:01.152Z,3.43
2022-08-30T20:03:39.914Z,4.00
2022-08-30T20:06:07.807Z,3.67
2022-08-30T20:08:35.391Z,3.37
2022-08-30T20:11:01.882Z,3.60
2022-08-30T20:13:29.052Z,3.70
2022-08-30T20:16:00.303Z,4.53
2022-08-30T20:18:27.939Z,3.30
2022-08-30T20:20:55.161Z,3.80
2022-08-30T20:23:25.584Z,4.13
2022-08-30T20:25:54.437Z,4.30
2022-08-30T20:28:21.667Z,3.63
2022-08-30T20:30:49.038Z,3.47
2022-08-30T20:33:15.763Z,3.40
2022-08-30T20:35:48.992Z,3.67
2022-08-30T20:38:21.179Z,3.60
2022-08-30T20:40:50.389Z,4.00
2022-08-30T20:43:18.907Z,3.93
2022-08-30T20:45:45.800Z,4.10
2022-08-30T20:48:12.368Z,3.80
2022-08-30T20:50:40.201Z,4.27
2022-08-30T20:53:06.759Z,3.47
2022-08-30T20:55:33.344Z,3.80
2022-08-30T20:57:59.927Z,3.20
2022-08-30T21:00:27.650Z,3.50
2022-08-30T21:02:54.219Z,3.70
2022-08-30T21:05:20.721Z,3.17
2022-08-30T21:07:47.213Z,4.00
2022-08-30T21:10:14.965Z,4.00
2022-08-30T21:12:42.749Z,3.47
2022-08-30T21:15:26.881Z,3.40
2022-08-30T21:17:56.281Z,3.30
2022-08-30T21:20:23.363Z,3.03
2022-08-30T21:22:49.785Z,3.70
2022-08-30T21:25:16.323Z,3.07
2022-08-30T21:27:43.753Z,3.80
2022-08-30T21:30:12.847Z,3.20
2022-08-30T21:32:39.355Z,3.10
2022-08-30T21:35:25.275Z,3.40
2022-08-30T21:37:53.411Z,3.73
2022-08-30T21:40:20.075Z,3.60
2022-08-30T21:42:46.624Z,3.50
2022-08-30T21:45:13.710Z,3.33
2022-08-30T21:47:40.268Z,3.70
2022-08-30T21:50:07.193Z,3.70
2022-08-30T21:52:34.117Z,3.27
2022-08-30T21:55:00.775Z,3.53
2022-08-30T21:57:28.604Z,3.10
2022-08-30T21:59:55.083Z,4.03
2022-08-30T22:02:22.714Z,3.53
2022-08-30T22:04:49.220Z,3.30
2022-08-30T22:07:15.693Z,3.10
2022-08-30T22:09:43.989Z,3.17
2022-08-30T22:12:10.815Z,3.20
2022-08-30T22:14:37.770Z,3.70
2022-08-30T22:17:05.335Z,3.57
2022-08-30T22:19:33.952Z,4.33
2022-08-30T22:22:01.769Z,3.20
2022-08-30T22:24:32.450Z,3.30
2022-08-30T22:26:59.896Z,3.60
2022-08-30T22:29:26.366Z,4.00
2022-08-30T22:31:52.907Z,4.17
2022-08-30T22:34:19.396Z,3.60
2022-08-30T22:36:45.866Z,3.30
2022-08-30T22:39:13.290Z,3.30
2022-08-30T22:41:44.681Z,3.27
2022-08-30T22:44:11.769Z,3.40
2022-08-30T22:46:39.096Z,3.00
2022-08-30T22:49:09.002Z,3.60
2022-08-30T22:51:36.664Z,3.27
2022-08-30T22:54:04.737Z,3.37
2022-08-30T22:56:32.735Z,3.97
2022-08-30T22:58:59.184Z,3.10
2022-08-30T23:01:29.939Z,3.10
2022-08-30T23:03:57.979Z,3.30
2022-08-30T23:06:25.151Z,3.87
2022-08-30T23:08:51.666Z,3.93
2022-08-30T23:11:19.065Z,3.30
2022-08-30T23:13:45.770Z,3.47
2022-08-30T23:16:13.988Z,3.20
2022-08-30T23:18:42.768Z,3.17
2022-08-30T23:21:24.317Z,3.20
2022-08-30T23:24:11.368Z,3.60
2022-08-30T23:26:57.464Z,3.20
2022-08-30T23:29:43.360Z,2.87
2022-08-30T23:32:28.788Z,3.03
2022-08-30T23:35:13.961Z,2.73
2022-08-30T23:37:58.810Z,3.70
2022-08-30T23:40:43.880Z,3.27
2022-08-30T23:43:29.508Z,3.33
2022-08-30T23:46:18.937Z,3.43
2022-08-30T23:49:09.150Z,3.00
2022-08-30T23:51:56.064Z,3.63
2022-08-30T23:54:41.753Z,3.00
2022-08-30T23:57:26.954Z,3.17
